Time;durP1;ratioP1;P1;durP2;ratioP2;P2;SDS_P1;SDS_P2;PMS_P1;PMS_P2;Temp;Humidity;BMP_temperature;BMP_pressure;BME280_temperature;BME280_humidity;BME280_pressure;Samples;Min_cycle;Max_cycle;Signal;HPM_P1;HPM_P2
2022/05/22 00:01:14;;;;;;;11.73;10.83;;;;;;;23.81;42.26;94808.50;6226476;28;104971;-57
2022/05/22 00:04:17;;;;;;;13.77;12.67;;;;;;;23.81;42.72;94809.28;6231066;28;104017;-56
2022/05/22 00:07:21;;;;;;;11.00;10.20;;;;;;;23.85;42.90;94804.84;6217394;28;104163;-56
2022/05/22 00:10:24;;;;;;;10.20;9.50;;;;;;;23.83;43.07;94811.63;6218014;28;103363;-56
2022/05/22 00:13:28;;;;;;;9.63;8.93;;;;;;;23.82;42.93;94808.19;6230773;27;103092;-56
2022/05/22 00:16:37;;;;;;;10.50;9.50;;;;;;;23.81;43.25;94797.81;6216728;28;104320;-56
2022/05/22 00:19:42;;;;;;;11.67;10.77;;;;;;;23.82;43.29;94794.81;6229561;28;104090;-55
2022/05/22 00:22:45;;;;;;;11.70;10.80;;;;;;;23.80;43.21;94791.69;6217280;28;103918;-56
2022/05/22 00:25:49;;;;;;;11.67;10.70;;;;;;;23.80;42.92;94797.03;6228491;28;104146;-55
2022/05/22 00:28:53;;;;;;;10.53;9.60;;;;;;;23.80;42.66;94794.34;6224377;28;103810;-56
2022/05/22 00:31:56;;;;;;;9.60;8.90;;;;;;;23.79;42.94;94790.13;6225165;28;103010;-57
2022/05/22 00:34:59;;;;;;;11.70;10.60;;;;;;;23.79;43.11;94792.78;6227773;28;103945;-55
2022/05/22 00:38:02;;;;;;;9.37;8.63;;;;;;;23.77;42.75;94788.88;6234951;28;103217;-56
2022/05/22 00:41:07;;;;;;;9.70;9.00;;;;;;;23.78;42.82;94788.56;6235774;28;102717;-56
2022/05/22 00:44:11;;;;;;;9.70;8.80;;;;;;;23.77;43.06;94792.34;6221110;28;103157;-56
2022/05/22 00:47:15;;;;;;;9.97;9.27;;;;;;;23.82;43.23;94794.03;6217306;28;104089;-56
2022/05/22 00:50:19;;;;;;;10.27;9.47;;;;;;;23.80;43.37;94799.69;6217716;28;103001;-56
2022/05/22 00:53:23;;;;;;;11.73;10.73;;;;;;;23.81;43.33;94787.91;6231630;28;104224;-56
2022/05/22 00:56:35;;;;;;;10.03;9.27;;;;;;;23.81;43.30;94787.13;6227169;28;104114;-56
2022/05/22 00:59:42;;;;;;;10.70;9.90;;;;;;;23.81;43.04;94787.91;6234471;28;103907;-56
2022/05/22 01:06:11;;;;;;;9.97;9.17;;;;;;;23.80;42.72;94783.66;6229524;27;103179;-56
2022/05/22 01:09:14;;;;;;;9.00;8.20;;;;;;;23.77;43.26;94786.22;6229280;28;104301;-56
2022/05/22 01:12:22;;;;;;;9.63;8.90;;;;;;;23.79;43.59;94786.66;6211208;28;103027;-56
2022/05/22 01:15:26;;;;;;;9.30;8.50;;;;;;;23.80;43.34;94785.56;6222370;28;103259;-56
2022/05/22 01:18:30;;;;;;;9.70;8.80;;;;;;;23.78;43.20;94777.09;6220170;28;103358;-56
2022/05/22 01:21:33;;;;;;;8.87;8.17;;;;;;;23.78;43.02;94783.22;6235258;28;102939;-56
2022/05/22 01:24:38;;;;;;;9.90;9.03;;;;;;;23.78;43.17;94777.09;6233810;27;104196;-56
2022/05/22 01:27:41;;;;;;;9.03;8.30;;;;;;;23.77;42.87;94780.88;6235369;28;103229;-56
2022/05/22 01:30:44;;;;;;;9.00;8.30;;;;;;;23.78;43.21;94783.22;6223288;28;105256;-56
2022/05/22 01:33:48;;;;;;;8.53;7.87;;;;;;;23.77;43.24;94772.84;6234544;28;104136;-56
2022/05/22 01:36:51;;;;;;;9.30;8.40;;;;;;;23.77;42.88;94775.53;6220110;28;103096;-55
2022/05/22 01:39:55;;;;;;;8.20;7.50;;;;;;;23.77;43.22;94778.19;6230667;28;102816;-54
2022/05/22 01:42:58;;;;;;;8.70;8.00;;;;;;;23.77;42.76;94773.63;6222526;28;103044;-55
2022/05/22 01:46:03;;;;;;;8.27;7.60;;;;;;;23.78;43.06;94775.19;6214949;28;104117;-55
2022/05/22 01:49:07;;;;;;;6.87;6.37;;;;;;;23.76;43.21;94773.97;6229721;28;104120;-55
2022/05/22 01:52:11;;;;;;;7.53;7.00;;;;;;;23.76;43.09;94774.75;6215805;28;104054;-55
2022/05/22 01:55:16;;;;;;;6.30;5.80;;;;;;;23.72;43.29;94770.38;6229535;28;103182;-54
2022/05/22 01:58:19;;;;;;;6.50;5.90;;;;;;;23.63;42.92;94770.41;6224886;28;104868;-55
2022/05/22 02:01:23;;;;;;;7.50;6.70;;;;;;;23.65;42.41;94773.53;6223584;28;104095;-56
2022/05/22 02:04:26;;;;;;;8.23;7.53;;;;;;;23.70;42.35;94769.91;6218565;28;105264;-56
2022/05/22 02:10:53;;;;;;;9.33;8.53;;;;;;;23.71;41.76;94777.59;6222676;28;103285;-55
2022/05/22 02:13:56;;;;;;;9.23;8.63;;;;;;;23.72;41.02;94776.50;6231468;28;102763;-55
2022/05/22 02:17:00;;;;;;;7.63;7.03;;;;;;;23.71;40.84;94779.50;6225181;28;104110;-56
2022/05/22 02:20:03;;;;;;;7.60;6.97;;;;;;;23.71;40.52;94777.59;6232982;28;104886;-56
2022/05/22 02:23:06;;;;;;;7.97;7.17;;;;;;;23.71;40.28;94782.94;6222888;28;103109;-56
2022/05/22 02:26:13;;;;;;;5.73;5.33;;;;;;;23.57;40.43;94780.50;6223661;28;104178;-56
2022/05/22 02:29:16;;;;;;;5.17;4.77;;;;;;;23.46;38.95;94775.81;6231570;28;104382;-56
2022/05/22 02:32:20;;;;;;;4.53;4.13;;;;;;;23.39;38.67;94780.88;6232460;28;104368;-55
2022/05/22 02:35:23;;;;;;;7.00;3.50;;;;;;;23.41;37.74;94784.81;6223471;28;103426;-56
2022/05/22 02:38:26;;;;;;;3.47;3.27;;;;;;;23.41;37.12;94789.34;6227310;28;103465;-55
2022/05/22 02:41:31;;;;;;;4.00;3.53;;;;;;;23.35;36.81;94788.72;6237401;28;103147;-55
2022/05/22 02:44:34;;;;;;;4.23;3.60;;;;;;;23.33;36.80;94798.94;6234760;28;103191;-56
2022/05/22 02:47:38;;;;;;;3.07;2.87;;;;;;;23.40;36.93;94788.56;6235130;28;104634;-55
2022/05/22 02:50:42;;;;;;;3.20;3.00;;;;;;;23.36;36.79;94792.22;6226088;28;104416;-55
2022/05/22 02:53:45;;;;;;;3.53;3.23;;;;;;;23.35;36.12;94791.41;6237207;28;104351;-55
2022/05/22 02:56:50;;;;;;;3.97;3.40;;;;;;;23.29;35.96;94782.00;6237632;28;104174;-55
2022/05/22 02:59:55;;;;;;;3.13;2.87;;;;;;;23.18;35.25;94788.75;6230516;28;103303;-55
2022/05/22 03:02:58;;;;;;;5.20;2.87;;;;;;;23.22;34.59;94793.16;6225262;28;104847;-55
2022/05/22 03:09:22;;;;;;;2.83;2.63;;;;;;;23.17;33.89;94801.31;6234562;28;103237;-55
2022/05/22 03:12:27;;;;;;;3.03;2.50;;;;;;;23.09;33.20;94804.03;6225296;28;104262;-55
2022/05/22 03:15:30;;;;;;;3.10;2.40;;;;;;;23.06;32.86;94807.34;6224197;28;103248;-56
2022/05/22 03:18:33;;;;;;;2.80;2.60;;;;;;;23.05;32.84;94806.56;6227569;28;104212;-56
2022/05/22 03:21:37;;;;;;;2.40;2.30;;;;;;;23.03;32.60;94814.09;6235744;28;103203;-55
2022/05/22 03:24:40;;;;;;;3.53;2.80;;;;;;;23.10;32.22;94822.38;6225872;28;104139;-56
2022/05/22 03:27:45;;;;;;;2.77;2.57;;;;;;;23.01;31.80;94818.94;6233994;28;103173;-55
2022/05/22 03:30:48;;;;;;;2.23;2.00;;;;;;;22.98;31.27;94808.91;6235841;28;104281;-56
2022/05/22 03:33:51;;;;;;;2.43;2.23;;;;;;;23.03;31.10;94818.66;6229900;28;103362;-56
2022/05/22 03:36:54;;;;;;;2.77;2.43;;;;;;;23.18;31.21;94812.78;6230782;28;103227;-56
2022/05/22 03:39:57;;;;;;;3.67;3.37;;;;;;;23.26;31.41;94814.66;6235363;28;104302;-55
2022/05/22 03:43:02;;;;;;;4.20;3.80;;;;;;;23.30;31.17;94816.41;6234543;28;104155;-56
2022/05/22 03:46:05;;;;;;;5.30;4.50;;;;;;;23.34;31.62;94821.88;6222942;28;103853;-56
2022/05/22 03:49:08;;;;;;;4.87;4.33;;;;;;;23.38;31.56;94827.38;6233200;27;103333;-56
2022/05/22 03:52:11;;;;;;;4.57;4.17;;;;;;;23.39;31.75;94823.63;6235700;28;103097;-56
2022/05/22 03:55:15;;;;;;;4.23;3.83;;;;;;;23.43;31.57;94827.22;6235591;28;103428;-56
2022/05/22 03:58:20;;;;;;;4.00;3.60;;;;;;;23.43;31.36;94829.88;6223570;28;104213;-55
2022/05/22 04:01:23;;;;;;;4.03;3.73;;;;;;;23.43;32.05;94827.22;6235360;28;104177;-55
2022/05/22 04:04:27;;;;;;;3.93;3.63;;;;;;;23.44;31.32;94831.44;6235517;28;103227;-55
2022/05/22 04:07:30;;;;;;;3.77;3.47;;;;;;;23.43;31.28;94829.88;6226051;28;103233;-56
2022/05/22 04:10:33;;;;;;;4.43;3.20;;;;;;;23.45;31.22;94833.78;6224988;27;103219;-56
2022/05/22 04:13:38;;;;;;;3.47;2.90;;;;;;;23.49;31.89;94828.59;6235484;28;103315;-55
2022/05/22 04:16:41;;;;;;;3.50;2.93;;;;;;;23.49;31.81;94840.06;6234347;28;103094;-55
2022/05/22 04:19:44;;;;;;;3.77;3.47;;;;;;;23.50;32.30;94833.63;6223923;28;103814;-56
2022/05/22 04:26:08;;;;;;;3.57;2.70;;;;;;;23.50;32.06;94836.28;6215427;28;104240;-55
2022/05/22 04:29:13;;;;;;;3.00;2.63;;;;;;;23.51;32.10;94842.41;6224283;28;103271;-56
2022/05/22 04:32:16;;;;;;;3.20;2.90;;;;;;;23.52;32.04;94846.66;6223153;27;103374;-56
2022/05/22 04:35:21;;;;;;;3.07;2.73;;;;;;;23.51;32.67;94847.75;6235001;28;103807;-55
2022/05/22 04:38:24;;;;;;;2.80;2.60;;;;;;;23.50;32.52;94844.28;6234637;28;103328;-56
2022/05/22 04:41:28;;;;;;;4.40;3.20;;;;;;;23.50;32.21;94840.84;6233532;28;103107;-56
2022/05/22 04:44:34;;;;;;;3.00;2.70;;;;;;;23.52;32.69;94841.31;6224668;27;103335;-56
2022/05/22 04:47:38;;;;;;;2.87;2.67;;;;;;;23.52;32.21;94851.97;6224048;28;103079;-56
2022/05/22 04:50:42;;;;;;;3.07;2.53;;;;;;;23.51;32.75;94855.75;6224512;28;103122;-56
2022/05/22 04:53:45;;;;;;;6.80;2.60;;;;;;;23.54;32.59;94850.59;6225036;28;103031;-56
2022/05/22 04:56:48;;;;;;;3.20;2.47;;;;;;;23.52;32.00;94851.97;6230044;28;103661;-55
2022/05/22 04:59:53;;;;;;;2.63;2.43;;;;;;;23.51;32.50;94853.88;6234912;28;104299;-55
2022/05/22 05:02:56;;;;;;;6.10;2.50;;;;;;;23.53;32.59;94854.38;6232031;28;103070;-56
2022/05/22 05:05:59;;;;;;;2.33;2.13;;;;;;;23.52;32.53;94855.47;6223456;28;104148;-55
2022/05/22 05:09:02;;;;;;;2.90;2.70;;;;;;;23.52;32.83;94852.78;6228852;28;103155;-55
2022/05/22 05:12:06;;;;;;;3.23;2.93;;;;;;;23.54;33.13;94849.81;6227066;28;104282;-55
2022/05/22 05:15:14;;;;;;;2.80;2.60;;;;;;;23.54;32.89;94857.81;6227960;28;103346;-55
2022/05/22 05:18:17;;;;;;;3.23;2.60;;;;;;;23.55;32.52;94856.72;6216455;28;103449;-54
2022/05/22 05:21:20;;;;;;;2.67;2.47;;;;;;;23.56;32.23;94855.59;6227898;28;103052;-55
2022/05/22 05:24:23;;;;;;;2.73;2.40;;;;;;;23.57;32.19;94857.19;6233250;28;103721;-56
2022/05/22 05:27:26;;;;;;;4.00;2.27;;;;;;;23.57;32.66;94854.50;6221847;28;104354;-55
2022/05/22 05:30:42;;;;;;;3.60;2.87;;;;;;;23.57;32.93;94857.19;6227260;28;104710;-56
2022/05/22 05:33:45;;;;;;;3.17;2.93;;;;;;;23.56;32.96;94859.06;6231990;28;103544;-55
2022/05/22 05:36:48;;;;;;;4.23;3.10;;;;;;;23.53;32.78;94859.72;6233921;28;103229;-56
2022/05/22 05:39:51;;;;;;;3.53;2.80;;;;;;;23.57;32.70;94863.31;6223185;27;103864;-55
2022/05/22 05:42:55;;;;;;;3.23;2.80;;;;;;;23.59;33.06;94861.09;6231804;28;103153;-55
2022/05/22 05:45:59;;;;;;;3.37;3.10;;;;;;;23.58;33.19;94864.09;6233092;28;103586;-55
2022/05/22 05:49:14;;;;;;;2.77;2.57;;;;;;;23.58;33.25;94862.19;6230949;28;103014;-56
2022/05/22 05:52:17;;;;;;;2.67;2.47;;;;;;;23.57;33.00;94863.31;6209693;27;104025;-56
2022/05/22 05:55:35;;;;;;;3.23;2.90;;;;;;;23.58;32.95;94864.09;6229898;28;103222;-57
2022/05/22 05:58:58;;;;;;;3.17;2.37;;;;;;;23.59;33.54;94871.78;6231032;28;105137;-56
2022/05/22 06:02:03;;;;;;;3.83;2.83;;;;;;;23.58;33.17;94875.56;6213202;28;103245;-57
2022/05/22 06:05:07;;;;;;;3.53;2.80;;;;;;;23.60;33.56;94877.91;6230188;28;103306;-57
2022/05/22 06:08:10;;;;;;;3.70;2.93;;;;;;;23.62;33.85;94878.38;6231084;28;103273;-56
2022/05/22 06:11:13;;;;;;;6.27;2.77;;;;;;;23.64;33.67;94875.38;6230461;27;104084;-57
2022/05/22 06:14:17;;;;;;;3.20;2.90;;;;;;;23.63;33.76;94876.47;6221678;27;105829;-56
2022/05/22 06:17:29;;;;;;;6.00;2.23;;;;;;;23.53;33.11;94877.63;6236657;28;103166;-55
2022/05/22 06:20:32;;;;;;;4.67;2.40;;;;;;;23.56;32.60;94880.44;6237298;28;104172;-57
2022/05/22 06:23:38;;;;;;;6.47;2.50;;;;;;;23.52;32.86;94874.16;6222398;28;103197;-57
2022/05/22 06:26:41;;;;;;;2.63;2.43;;;;;;;23.57;32.91;94883.88;6221228;28;105119;-57
2022/05/22 06:29:47;;;;;;;2.47;2.00;;;;;;;23.60;33.59;94877.91;6235846;28;103993;-57
2022/05/22 06:32:51;;;;;;;4.23;2.57;;;;;;;23.64;33.46;94883.38;6237075;28;103135;-58
2022/05/22 06:35:54;;;;;;;3.83;3.07;;;;;;;23.66;33.67;94875.84;6221109;28;104056;-58
2022/05/22 06:42:21;;;;;;;3.30;3.00;;;;;;;23.69;34.11;94870.66;6237034;28;103037;-53
2022/05/22 06:45:25;;;;;;;2.70;2.47;;;;;;;23.69;34.37;94876.00;6228299;28;104489;-55
2022/05/22 06:48:30;;;;;;;3.20;2.90;;;;;;;23.70;35.31;94877.56;6220061;28;103201;-56
2022/05/22 06:51:33;;;;;;;4.67;3.50;;;;;;;23.72;35.72;94874.56;6233503;28;103337;-56
2022/05/22 06:54:36;;;;;;;3.50;3.20;;;;;;;23.77;35.67;94867.16;6234904;28;103892;-56
2022/05/22 06:57:41;;;;;;;4.10;3.30;;;;;;;23.72;35.71;94863.88;6238947;28;104180;-56
2022/05/22 07:00:44;;;;;;;4.30;2.70;;;;;;;23.73;35.45;94868.91;6228156;28;103056;-57
2022/05/22 07:03:48;;;;;;;2.70;2.50;;;;;;;23.75;35.72;94874.72;6238447;28;103458;-56
2022/05/22 07:06:51;;;;;;;2.67;2.43;;;;;;;23.75;36.00;94857.91;6237048;28;103139;-59
2022/05/22 07:09:55;;;;;;;3.20;3.00;;;;;;;23.73;36.01;94846.75;6230792;27;103958;-57
2022/05/22 07:12:59;;;;;;;3.53;2.90;;;;;;;23.73;35.33;94846.75;6235485;28;103027;-56
2022/05/22 07:16:04;;;;;;;5.50;2.67;;;;;;;23.73;35.90;94850.19;6237217;28;104116;-56
2022/05/22 07:19:28;;;;;;;5.50;2.77;;;;;;;23.75;35.80;94842.66;6237355;28;103145;-57
2022/05/22 07:22:31;;;;;;;3.33;3.03;;;;;;;23.75;35.86;94848.00;6225662;27;103107;-57
2022/05/22 07:25:35;;;;;;;4.53;3.00;;;;;;;23.77;36.11;94845.78;6236905;28;103153;-57
2022/05/22 07:28:38;;;;;;;3.40;3.10;;;;;;;23.79;36.76;94851.59;6237453;28;103313;-57
2022/05/22 07:31:41;;;;;;;3.80;3.50;;;;;;;23.79;36.81;94843.56;6237212;28;103286;-56
2022/05/22 07:34:47;;;;;;;3.90;3.60;;;;;;;23.81;36.76;94857.38;6223913;28;103684;-56
2022/05/22 07:37:56;;;;;;;4.20;3.70;;;;;;;23.81;37.38;94851.25;6212767;28;103515;-56
2022/05/22 07:40:59;;;;;;;6.07;3.57;;;;;;;23.85;37.83;94855.63;6231028;28;104175;-57
2022/05/22 07:44:03;;;;;;;4.97;3.60;;;;;;;23.92;37.53;94862.38;6227284;28;104224;-57
2022/05/22 07:47:06;;;;;;;6.10;3.83;;;;;;;23.99;37.45;94851.97;6234777;28;103204;-57
2022/05/22 07:50:21;;;;;;;5.13;3.13;;;;;;;24.04;38.52;94859.84;6237333;28;103162;-57
2022/05/22 07:53:25;;;;;;;6.50;4.20;;;;;;;24.05;38.04;94853.41;6235952;28;103153;-57
2022/05/22 07:56:28;;;;;;;3.80;3.50;;;;;;;24.10;37.38;94842.50;6211333;28;104624;-56
2022/05/22 07:59:34;;;;;;;7.80;4.50;;;;;;;24.09;37.54;94836.38;6229354;28;104333;-57
2022/05/22 08:02:38;;;;;;;9.07;8.17;;;;;;;24.08;37.30;94839.38;6237239;28;103551;-57
2022/05/22 08:05:43;;;;;;;10.00;8.97;;;;;;;24.12;37.54;94832.28;6221418;28;103229;-57
2022/05/22 08:08:46;;;;;;;9.77;8.97;;;;;;;24.12;37.61;94832.28;6216551;28;104114;-57
2022/05/22 08:11:49;;;;;;;10.10;7.83;;;;;;;24.15;37.51;94823.59;6212378;28;103412;-57
2022/05/22 08:14:53;;;;;;;8.10;7.30;;;;;;;24.14;37.51;94816.69;6220287;28;103332;-56
2022/05/22 08:17:56;;;;;;;6.90;5.50;;;;;;;24.06;36.23;94807.63;6221390;28;103867;-56
2022/05/22 08:21:00;;;;;;;8.37;5.10;;;;;;;24.01;36.15;94804.34;6230445;28;103512;-56
2022/05/22 08:24:03;;;;;;;5.60;5.10;;;;;;;24.07;36.36;94790.47;6232458;28;103319;-58
2022/05/22 08:27:07;;;;;;;7.30;5.57;;;;;;;24.05;35.95;94790.03;6233113;28;103090;-58
2022/05/22 08:30:13;;;;;;;5.30;4.80;;;;;;;24.03;36.51;94786.09;6223915;28;103330;-58
2022/05/22 08:33:16;;;;;;;6.20;5.43;;;;;;;24.02;36.54;94790.63;6231770;28;103543;-58
2022/05/22 08:36:21;;;;;;;5.77;5.10;;;;;;;24.00;36.03;94790.19;6230980;28;104062;-58
2022/05/22 08:39:24;;;;;;;5.83;5.33;;;;;;;24.02;36.54;94776.50;6219239;28;104439;-58
2022/05/22 08:42:36;;;;;;;6.40;5.90;;;;;;;24.07;36.47;94779.78;6222041;28;104060;-56
2022/05/22 08:45:42;;;;;;;6.60;5.50;;;;;;;24.16;37.52;94772.47;6221106;27;104639;-56
2022/05/22 08:48:52;;;;;;;5.77;5.27;;;;;;;24.19;37.90;94784.41;6210961;28;102966;-56
2022/05/22 08:52:01;;;;;;;5.30;4.90;;;;;;;24.16;37.95;94780.50;6228105;28;104135;-56
2022/05/22 08:55:08;;;;;;;5.00;4.60;;;;;;;24.15;37.83;94781.59;6212962;28;103431;-56
2022/05/22 09:01:51;;;;;;;6.10;5.17;;;;;;;24.16;38.14;94771.69;6212699;28;106345;-56
2022/05/22 09:05:00;;;;;;;5.53;5.00;;;;;;;24.17;39.38;94773.25;6196751;28;104230;-56
2022/05/22 09:08:07;;;;;;;6.43;4.33;;;;;;;24.21;39.66;94776.88;6214046;28;103925;-55
2022/05/22 09:11:17;;;;;;;5.13;4.73;;;;;;;24.20;39.71;94777.97;6224666;28;104213;-56
2022/05/22 09:14:26;;;;;;;6.30;5.80;;;;;;;24.25;40.05;94788.47;6220077;28;104228;-56
2022/05/22 09:17:34;;;;;;;7.40;6.80;;;;;;;24.21;40.13;94784.88;6227462;28;104269;-56
2022/05/22 09:20:47;;;;;;;10.13;9.23;;;;;;;24.24;39.99;94789.56;6215753;28;104200;-56
2022/05/22 09:23:59;;;;;;;10.00;9.00;;;;;;;24.37;39.71;94785.88;6214230;28;103302;-55
2022/05/22 09:27:09;;;;;;;9.03;8.13;;;;;;;24.42;39.65;94779.53;6210956;28;103430;-55
2022/05/22 09:30:16;;;;;;;8.90;8.10;;;;;;;24.43;39.55;94781.09;6213599;28;103329;-55
2022/05/22 09:33:29;;;;;;;9.83;7.90;;;;;;;24.42;39.29;94774.97;6211200;28;103024;-56
2022/05/22 09:36:42;;;;;;;8.93;8.13;;;;;;;24.36;38.85;94775.47;6232227;28;103284;-56
2022/05/22 09:40:27;;;;;;;8.20;7.40;;;;;;;24.29;38.55;94767.97;6199559;28;103096;-56
2022/05/22 09:44:15;;;;;;;8.20;7.50;;;;;;;24.26;38.51;94767.84;6207833;28;104265;-56
2022/05/22 09:48:07;;;;;;;9.30;7.30;;;;;;;24.26;38.52;94765.97;6220163;27;103430;-56
2022/05/22 09:51:33;;;;;;;7.10;6.40;;;;;;;24.30;38.56;94763.41;6199517;27;103597;-56
2022/05/22 09:54:52;;;;;;;6.63;5.83;;;;;;;24.30;38.83;94755.38;6228038;28;103217;-56
2022/05/22 09:58:49;;;;;;;5.93;4.50;;;;;;;24.27;38.84;94748.81;6231098;28;104937;-56
2022/05/22 10:01:55;;;;;;;4.90;4.10;;;;;;;24.30;38.83;94750.03;6196155;28;104497;-56
2022/05/22 10:05:07;;;;;;;5.67;5.07;;;;;;;24.28;38.63;94747.69;6228290;28;104131;-56
2022/05/22 10:08:25;;;;;;;12.53;5.40;;;;;;;24.31;38.43;94744.38;6207712;28;103205;-56
2022/05/22 10:11:40;;;;;;;5.73;5.10;;;;;;;24.32;38.33;94737.91;6205730;28;104848;-56
2022/05/22 10:14:57;;;;;;;6.07;5.43;;;;;;;24.24;37.95;94736.09;6214069;28;103358;-56
2022/05/22 10:18:20;;;;;;;7.40;5.13;;;;;;;24.24;37.58;94721.94;6233219;28;103261;-56
2022/05/22 10:21:28;;;;;;;6.03;5.43;;;;;;;24.23;36.92;94723.84;6234372;28;103053;-54
2022/05/22 10:24:51;;;;;;;6.23;5.67;;;;;;;24.27;36.84;94711.38;6223749;28;103437;-54
2022/05/22 10:28:00;;;;;;;6.47;5.73;;;;;;;24.29;37.13;94713.72;6231217;28;104018;-54
2022/05/22 10:31:12;;;;;;;5.20;4.80;;;;;;;24.28;37.39;94710.25;6234287;28;103153;-54
2022/05/22 10:34:23;;;;;;;5.23;4.83;;;;;;;24.31;37.95;94706.16;6227207;28;103134;-55
2022/05/22 10:37:33;;;;;;;5.00;4.60;;;;;;;24.33;37.95;94701.25;6229155;28;102988;-54
2022/05/22 10:43:54;;;;;;;5.10;4.30;;;;;;;24.29;38.60;94693.09;6233352;28;103143;-55
2022/05/22 10:47:02;;;;;;;4.07;3.67;;;;;;;24.30;38.68;94689.31;6222718;28;103187;-54
2022/05/22 10:50:17;;;;;;;4.23;3.90;;;;;;;24.29;38.45;94685.09;6234194;28;103137;-55
2022/05/22 10:53:26;;;;;;;3.53;3.23;;;;;;;24.29;38.72;94684.31;6234302;28;104123;-55
2022/05/22 10:56:32;;;;;;;3.37;3.17;;;;;;;24.30;38.95;94689.31;6225515;27;103175;-55
2022/05/22 10:59:35;;;;;;;4.90;3.70;;;;;;;24.29;39.05;94684.31;6222073;28;102941;-54
2022/05/22 11:02:40;;;;;;;3.90;3.50;;;;;;;24.28;39.19;94680.84;6213716;28;104390;-54
2022/05/22 11:05:51;;;;;;;3.53;3.23;;;;;;;24.28;39.25;94674.72;6212436;28;103201;-54
2022/05/22 11:08:57;;;;;;;3.10;2.80;;;;;;;24.30;39.03;94689.31;6203684;28;104915;-54
2022/05/22 11:12:07;;;;;;;3.27;2.97;;;;;;;24.30;39.05;94686.66;6213842;28;103050;-55
2022/05/22 11:15:13;;;;;;;4.23;3.40;;;;;;;24.28;39.20;94683.53;6224749;27;103104;-59
2022/05/22 11:18:22;;;;;;;3.63;3.27;;;;;;;24.30;38.42;94673.28;6230365;28;103557;-58
2022/05/22 11:21:32;;;;;;;5.80;5.40;;;;;;;24.34;38.79;94670.72;6220859;28;103449;-57
2022/05/22 11:24:46;;;;;;;7.57;6.83;;;;;;;24.37;38.04;94664.72;6222732;28;104181;-58
2022/05/22 11:28:04;;;;;;;9.93;9.00;;;;;;;24.36;38.41;94665.81;6214131;28;104364;-58
2022/05/22 11:31:26;;;;;;;11.67;10.67;;;;;;;24.39;37.79;94667.84;6224329;27;104468;-59
2022/05/22 11:35:04;;;;;;;14.27;13.00;;;;;;;24.39;38.20;94652.59;6228087;28;104048;-58
2022/05/22 11:38:24;;;;;;;16.17;14.77;;;;;;;24.42;38.08;94646.56;6181536;28;103428;-58
2022/05/22 11:41:34;;;;;;;19.57;17.90;;;;;;;24.45;38.02;94645.13;6228926;28;102847;-54
2022/05/22 11:44:55;;;;;;;18.80;17.00;;;;;;;24.44;38.18;94632.88;6218859;27;103215;-55
2022/05/22 11:48:29;;;;;;;16.60;15.30;;;;;;;24.43;38.36;94642.78;6213028;28;104046;-55
2022/05/22 11:51:52;;;;;;;15.33;14.13;;;;;;;24.44;38.74;94625.63;6234518;28;104483;-54
2022/05/22 11:55:07;;;;;;;13.90;12.70;;;;;;;24.46;38.86;94647.47;6225844;28;104137;-55
2022/05/22 11:58:19;;;;;;;12.80;11.60;;;;;;;24.43;39.08;94648.13;6235135;28;103201;-53
2022/05/22 12:01:28;;;;;;;11.33;10.30;;;;;;;24.46;39.31;94647.47;6236480;28;103561;-55
2022/05/22 12:04:44;;;;;;;11.13;10.03;;;;;;;24.44;39.38;94639.00;6233677;28;103196;-55
2022/05/22 12:08:00;;;;;;;10.23;9.33;;;;;;;24.43;39.77;94648.13;6206629;28;103287;-54
2022/05/22 12:11:12;;;;;;;9.07;8.20;;;;;;;24.45;39.82;94640.56;6228427;28;103257;-53
2022/05/22 12:14:25;;;;;;;7.27;6.77;;;;;;;24.45;39.68;94643.25;6234912;28;104206;-54
2022/05/22 12:17:36;;;;;;;7.10;6.50;;;;;;;24.44;39.69;94644.34;6226249;28;103150;-54
2022/05/22 12:20:46;;;;;;;8.00;7.03;;;;;;;24.46;39.68;94647.47;6235627;28;103078;-54
2022/05/22 12:23:54;;;;;;;6.67;5.93;;;;;;;24.44;39.85;94640.91;6237143;28;103170;-54
2022/05/22 12:27:02;;;;;;;5.70;5.20;;;;;;;24.43;39.35;94653.50;6235806;28;103459;-55
2022/05/22 12:30:09;;;;;;;5.37;4.97;;;;;;;24.42;39.51;94651.94;6225678;28;102982;-55
2022/05/22 12:33:14;;;;;;;6.03;5.10;;;;;;;24.44;39.57;94655.06;6237000;28;103085;-55
2022/05/22 12:36:25;;;;;;;4.93;4.47;;;;;;;24.45;39.38;94655.84;6236764;28;104212;-54
2022/05/22 12:39:38;;;;;;;4.93;4.50;;;;;;;24.46;39.04;94657.41;6225676;28;103189;-54
2022/05/22 12:42:49;;;;;;;4.20;3.90;;;;;;;24.45;39.17;94651.25;6235870;28;103445;-54
2022/05/22 12:45:55;;;;;;;4.13;3.60;;;;;;;24.43;39.36;94648.13;6237059;28;103485;-54
2022/05/22 12:49:19;;;;;;;4.90;4.50;;;;;;;24.42;39.60;94637.78;6235331;28;104095;-54
2022/05/22 12:52:30;;;;;;;4.30;3.90;;;;;;;24.44;39.42;94638.22;6201241;28;103921;-54
2022/05/22 12:55:38;;;;;;;4.20;3.67;;;;;;;24.45;39.31;94643.25;6223486;28;103089;-55
2022/05/22 12:58:51;;;;;;;4.00;3.50;;;;;;;24.44;39.29;94648.91;6236132;28;103168;-53
2022/05/22 13:01:56;;;;;;;3.67;3.37;;;;;;;24.44;39.10;94641.69;6229619;28;103410;-55
2022/05/22 13:05:01;;;;;;;3.30;3.00;;;;;;;24.44;39.10;94641.69;6234184;28;103536;-54
2022/05/22 13:08:15;;;;;;;3.97;3.40;;;;;;;24.43;39.29;94634.75;6233659;28;103938;-55
2022/05/22 13:11:25;;;;;;;3.70;3.40;;;;;;;24.43;39.05;94632.09;6232505;28;104186;-55
2022/05/22 13:14:55;;;;;;;2.90;2.67;;;;;;;24.42;39.10;94630.53;6223364;28;102794;-54
2022/05/22 13:18:12;;;;;;;4.23;3.30;;;;;;;24.44;38.90;94632.88;6235713;28;104274;-54
2022/05/22 13:21:35;;;;;;;3.10;2.90;;;;;;;24.43;39.57;94632.09;6231149;28;103985;-57
2022/05/22 13:24:39;;;;;;;3.73;3.43;;;;;;;24.41;39.20;94637.00;6215187;27;104245;-58
2022/05/22 13:27:42;;;;;;;3.70;3.40;;;;;;;24.40;38.29;94643.47;6218719;28;104292;-58
2022/05/22 13:30:50;;;;;;;5.30;3.50;;;;;;;24.40;38.00;94640.78;6216720;28;103187;-57
2022/05/22 13:34:01;;;;;;;3.80;3.47;;;;;;;24.44;37.88;94644.34;6214354;28;103056;-58
2022/05/22 13:37:08;;;;;;;4.50;4.10;;;;;;;24.46;37.92;94642.13;6204728;28;103428;-58
2022/05/22 13:40:19;;;;;;;3.90;3.60;;;;;;;24.44;38.16;94652.38;6217326;28;104024;-57
2022/05/22 13:43:56;;;;;;;6.60;4.37;;;;;;;24.43;37.83;94645.47;6217997;28;104088;-58
2022/05/22 13:47:28;;;;;;;4.20;3.77;;;;;;;24.48;38.02;94642.56;6209563;28;103316;-58
2022/05/22 13:54:11;;;;;;;4.67;4.37;;;;;;;24.46;38.04;94636.78;6211177;28;103107;-58
2022/05/22 13:57:18;;;;;;;5.60;5.20;;;;;;;24.42;38.01;94637.78;6218482;28;104187;-58
2022/05/22 14:00:23;;;;;;;7.90;4.40;;;;;;;24.41;37.94;94631.66;6206136;28;104005;-57
2022/05/22 14:03:30;;;;;;;5.27;4.77;;;;;;;24.43;37.65;94637.44;6223062;28;103440;-58
2022/05/22 14:06:35;;;;;;;5.07;4.60;;;;;;;24.43;37.92;94637.44;6212188;28;103358;-58
2022/05/22 14:09:41;;;;;;;5.17;4.67;;;;;;;24.46;37.76;94636.78;6208984;28;103422;-58
2022/05/22 14:12:46;;;;;;;4.47;4.07;;;;;;;24.56;38.17;94632.13;6210184;28;104398;-58
2022/05/22 14:15:50;;;;;;;4.70;4.30;;;;;;;24.60;38.37;94636.47;6211064;28;104217;-58
2022/05/22 14:19:04;;;;;;;4.43;4.13;;;;;;;24.61;38.53;94626.56;6217224;28;104273;-58
2022/05/22 14:22:14;;;;;;;4.80;4.40;;;;;;;24.63;38.77;94624.31;6209969;28;105374;-58
2022/05/22 14:25:24;;;;;;;4.73;4.23;;;;;;;24.56;38.18;94624.88;6223053;28;103072;-57
2022/05/22 14:28:31;;;;;;;4.37;4.03;;;;;;;24.49;38.29;94614.72;6213991;28;103594;-57
2022/05/22 14:31:42;;;;;;;5.10;4.60;;;;;;;24.50;38.36;94618.94;6222015;27;103352;-61
2022/05/22 14:34:48;;;;;;;5.17;4.67;;;;;;;24.49;38.33;94616.59;6210527;28;103309;-58
2022/05/22 14:37:52;;;;;;;5.17;4.57;;;;;;;24.49;38.46;94611.25;6235086;28;103439;-57
2022/05/22 14:40:58;;;;;;;5.40;5.00;;;;;;;24.51;38.40;94601.00;6215586;28;104046;-57
2022/05/22 14:44:03;;;;;;;5.47;5.03;;;;;;;24.48;38.50;94607.00;6220221;28;106012;-58
2022/05/22 14:47:06;;;;;;;6.50;6.00;;;;;;;24.49;38.67;94604.00;6212478;28;102996;-57
2022/05/22 14:50:11;;;;;;;6.33;5.80;;;;;;;24.47;38.70;94606.25;6234420;28;103268;-66
2022/05/22 14:53:22;;;;;;;8.33;7.07;;;;;;;24.49;38.54;94608.56;6232720;28;103342;-57
2022/05/22 14:56:25;;;;;;;6.40;5.90;;;;;;;24.59;38.92;94591.31;6213107;27;104072;-56
2022/05/22 14:59:38;;;;;;;7.00;6.40;;;;;;;24.64;39.12;94588.44;6228906;28;103087;-57